createdAt,value
2023-03-16T00:01:06.518Z,3.90
2023-03-16T00:05:14.497Z,3.90
2023-03-16T00:09:21.195Z,3.90
2023-03-16T00:13:28.085Z,3.80
2023-03-16T00:17:34.819Z,3.90
2023-03-16T00:21:41.523Z,5.60
2023-03-16T00:25:48.162Z,3.90
2023-03-16T00:29:57.614Z,4.00
2023-03-16T00:34:04.291Z,4.00
2023-03-16T00:38:10.929Z,4.10
2023-03-16T00:42:18.644Z,4.10
2023-03-16T00:46:26.872Z,4.10
2023-03-16T00:50:33.531Z,4.10
2023-03-16T00:54:42.771Z,4.10
2023-03-16T00:58:49.549Z,4.10
2023-03-16T01:02:56.202Z,4.20
2023-03-16T01:07:04.846Z,4.30
2023-03-16T01:11:20.078Z,4.30
2023-03-16T01:15:26.916Z,4.30
2023-03-16T01:19:35.689Z,4.30
2023-03-16T01:23:44.091Z,4.30
2023-03-16T01:27:50.791Z,4.40
2023-03-16T01:31:57.544Z,4.30
2023-03-16T01:36:11.782Z,4.30
2023-03-16T01:40:18.672Z,3.10
2023-03-16T01:44:32.692Z,4.30
2023-03-16T01:48:51.851Z,4.30
2023-03-16T01:52:58.644Z,4.30
2023-03-16T01:57:18.287Z,4.30
2023-03-16T02:01:27.409Z,4.30
2023-03-16T02:05:42.223Z,4.30
2023-03-16T02:09:51.727Z,4.30
2023-03-16T02:14:05.177Z,4.30
2023-03-16T02:18:12.006Z,4.40
2023-03-16T02:22:19.506Z,4.30
2023-03-16T02:26:40.084Z,4.30
2023-03-16T02:30:48.207Z,2.90
2023-03-16T02:34:56.735Z,4.30
2023-03-16T02:39:05.924Z,4.40
2023-03-16T02:43:22.413Z,4.40
2023-03-16T02:47:41.602Z,4.40
2023-03-16T02:51:48.498Z,4.50
2023-03-16T02:55:55.481Z,4.50
2023-03-16T03:00:02.275Z,4.60
2023-03-16T03:04:09.060Z,4.60
2023-03-16T03:08:16.311Z,4.60
2023-03-16T03:12:22.953Z,4.60
2023-03-16T03:16:30.078Z,4.60
2023-03-16T03:20:36.979Z,4.60
2023-03-16T03:24:43.980Z,4.60
2023-03-16T03:28:52.587Z,4.60
2023-03-16T03:32:59.400Z,4.70
2023-03-16T03:37:06.147Z,4.70
2023-03-16T03:41:12.865Z,4.70
2023-03-16T03:45:19.584Z,4.70
2023-03-16T03:49:26.380Z,4.70
2023-03-16T03:53:33.348Z,4.80
2023-03-16T03:57:41.047Z,4.80
2023-03-16T04:01:49.005Z,4.80
2023-03-16T04:05:56.545Z,4.80
2023-03-16T04:10:03.487Z,4.80
2023-03-16T04:14:10.152Z,4.70
2023-03-16T04:18:16.861Z,4.70
2023-03-16T04:22:23.558Z,4.70
2023-03-16T04:26:30.222Z,4.70
2023-03-16T04:30:36.919Z,4.70
2023-03-16T04:34:43.858Z,4.60
2023-03-16T04:38:51.557Z,4.60
2023-03-16T04:42:58.206Z,4.50
2023-03-16T04:47:04.911Z,4.60
2023-03-16T04:51:11.609Z,4.50
2023-03-16T04:55:18.311Z,4.50
2023-03-16T04:59:25.092Z,4.60
2023-03-16T05:03:32.556Z,4.60
2023-03-16T05:07:41.441Z,4.60
2023-03-16T05:11:48.114Z,4.50
2023-03-16T05:15:54.853Z,4.50
2023-03-16T05:20:01.578Z,4.50
2023-03-16T05:24:08.783Z,4.40
2023-03-16T05:28:16.279Z,4.50
2023-03-16T05:32:22.953Z,4.50
2023-03-16T05:36:29.660Z,4.40
2023-03-16T05:40:37.258Z,4.40
2023-03-16T05:44:44.890Z,4.50
2023-03-16T05:48:51.599Z,4.50
2023-03-16T05:52:58.234Z,4.50
2023-03-16T05:57:07.028Z,4.70
2023-03-16T06:01:15.518Z,4.70
2023-03-16T06:05:22.984Z,4.70
2023-03-16T06:09:29.619Z,4.70
2023-03-16T06:13:36.270Z,4.80
2023-03-16T06:17:42.936Z,4.80
2023-03-16T06:21:49.650Z,4.90
2023-03-16T06:25:56.604Z,4.90
2023-03-16T06:30:04.404Z,5.00
2023-03-16T06:34:11.583Z,5.10
2023-03-16T06:38:19.520Z,5.20
2023-03-16T06:42:26.170Z,5.20
2023-03-16T06:46:33.108Z,5.20
2023-03-16T06:50:39.792Z,5.30
2023-03-16T06:54:46.472Z,5.40
2023-03-16T06:58:53.313Z,5.40
2023-03-16T07:03:01.881Z,4.20
2023-03-16T07:07:09.525Z,5.60
2023-03-16T07:11:16.233Z,5.50
2023-03-16T07:15:25.558Z,5.50
2023-03-16T07:19:32.246Z,5.60
2023-03-16T07:23:39.041Z,5.60
2023-03-16T07:27:47.512Z,5.70
2023-03-16T07:31:54.920Z,5.80
2023-03-16T07:36:05.995Z,5.90
2023-03-16T07:40:14.010Z,5.90
2023-03-16T07:44:20.661Z,6.10
2023-03-16T07:48:27.766Z,6.20
2023-03-16T07:52:37.414Z,6.50
2023-03-16T07:56:49.379Z,6.60
2023-03-16T08:00:57.373Z,6.60
2023-03-16T08:05:04.189Z,6.60
2023-03-16T08:09:11.792Z,6.50
2023-03-16T08:13:19.551Z,6.50
2023-03-16T08:17:26.634Z,6.40
2023-03-16T08:21:35.101Z,6.20
2023-03-16T08:25:44.700Z,6.30
2023-03-16T08:29:54.085Z,6.10
2023-03-16T08:34:01.551Z,6.30
2023-03-16T08:38:09.109Z,6.30
2023-03-16T08:42:16.207Z,6.40
2023-03-16T08:46:24.211Z,6.40
2023-03-16T08:50:31.275Z,6.40
2023-03-16T08:54:38.662Z,6.50
2023-03-16T08:58:46.015Z,6.70
2023-03-16T09:02:53.211Z,6.80
2023-03-16T09:07:09.005Z,7.00
2023-03-16T09:11:18.772Z,7.20
2023-03-16T09:15:25.462Z,7.30
2023-03-16T09:19:49.999Z,7.30
2023-03-16T09:23:57.930Z,7.40
2023-03-16T09:28:04.934Z,7.30
2023-03-16T09:32:11.895Z,7.40
2023-03-16T09:36:18.853Z,7.60
2023-03-16T09:40:28.539Z,7.90
2023-03-16T09:44:42.507Z,8.10
2023-03-16T09:48:49.165Z,8.10
2023-03-16T09:53:19.094Z,8.00
2023-03-16T09:57:34.707Z,8.00
2023-03-16T10:02:17.031Z,8.00
2023-03-16T10:06:24.839Z,8.10
2023-03-16T10:10:47.040Z,8.30
2023-03-16T10:15:11.787Z,8.50
2023-03-16T10:19:21.785Z,8.50
2023-03-16T10:23:35.560Z,8.50
2023-03-16T10:27:44.749Z,8.60
2023-03-16T10:31:51.639Z,8.60
2023-03-16T10:36:10.374Z,8.50
2023-03-16T10:40:20.305Z,8.50
2023-03-16T10:44:29.870Z,8.60
2023-03-16T10:48:36.557Z,8.80
2023-03-16T10:52:45.085Z,9.00
2023-03-16T10:56:51.793Z,9.20
2023-03-16T11:00:58.851Z,9.60
2023-03-16T11:05:19.218Z,10.00
2023-03-16T11:09:33.928Z,10.20
2023-03-16T11:13:48.114Z,10.30
2023-03-16T11:17:55.383Z,10.50
2023-03-16T11:22:17.471Z,10.80
2023-03-16T11:26:35.854Z,11.00
2023-03-16T11:31:13.916Z,11.10
2023-03-16T11:35:37.249Z,10.90
2023-03-16T11:39:54.890Z,11.40
2023-03-16T11:44:19.277Z,11.50
2023-03-16T11:48:47.433Z,11.50
2023-03-16T11:53:31.827Z,11.50
2023-03-16T11:57:53.560Z,11.50
2023-03-16T12:02:09.336Z,11.40
2023-03-16T12:06:23.358Z,11.50
2023-03-16T12:10:42.253Z,11.60
2023-03-16T12:15:06.666Z,11.50
2023-03-16T12:19:19.612Z,11.40
2023-03-16T12:23:50.373Z,11.40
2023-03-16T12:28:00.511Z,11.30
2023-03-16T12:32:18.854Z,11.30
2023-03-16T12:37:08.080Z,11.60
2023-03-16T12:41:46.176Z,12.00
2023-03-16T12:46:02.188Z,12.30
2023-03-16T12:50:12.784Z,12.30
2023-03-16T12:54:25.337Z,12.30
2023-03-16T12:58:32.991Z,12.30
2023-03-16T13:02:45.241Z,12.60
2023-03-16T13:07:12.040Z,12.90
2023-03-16T13:11:19.019Z,13.00
2023-03-16T13:15:29.872Z,13.00
2023-03-16T13:19:38.028Z,13.00
2023-03-16T13:24:01.238Z,13.00
2023-03-16T13:28:15.433Z,13.00
2023-03-16T13:32:24.257Z,13.00
2023-03-16T13:36:31.929Z,13.20
2023-03-16T13:40:46.704Z,13.10
2023-03-16T13:44:56.681Z,13.10
2023-03-16T13:49:04.481Z,13.30
2023-03-16T13:53:17.191Z,13.20
2023-03-16T13:57:28.291Z,13.10
2023-03-16T14:01:35.510Z,13.20
2023-03-16T14:05:42.451Z,13.10
2023-03-16T14:09:49.890Z,13.20
2023-03-16T14:13:59.158Z,13.20
2023-03-16T14:18:21.337Z,13.30
2023-03-16T14:22:34.597Z,13.30
2023-03-16T14:26:47.282Z,13.30
2023-03-16T14:31:02.230Z,13.30
2023-03-16T14:35:21.156Z,13.30
2023-03-16T14:39:29.622Z,13.20
2023-03-16T14:43:44.705Z,13.30
2023-03-16T14:47:53.599Z,13.10
2023-03-16T14:52:08.121Z,13.00
2023-03-16T14:56:15.881Z,13.00
2023-03-16T15:00:23.034Z,13.00
2023-03-16T15:04:34.317Z,13.00
2023-03-16T15:08:45.140Z,13.10
2023-03-16T15:12:55.014Z,13.00
2023-03-16T15:17:01.674Z,13.00
2023-03-16T15:21:14.254Z,12.90
2023-03-16T15:25:24.119Z,13.00
2023-03-16T15:29:30.794Z,12.90
2023-03-16T15:33:37.438Z,12.80
2023-03-16T15:37:44.688Z,12.70
2023-03-16T15:41:52.895Z,12.50
2023-03-16T15:46:03.542Z,12.90
2023-03-16T15:50:12.683Z,12.40
2023-03-16T15:54:19.333Z,12.50
2023-03-16T15:58:27.922Z,12.70
2023-03-16T16:02:34.582Z,12.90
2023-03-16T16:06:41.953Z,12.90
2023-03-16T16:10:50.367Z,13.00
2023-03-16T16:14:57.191Z,13.00
2023-03-16T16:19:03.886Z,13.00
2023-03-16T16:23:10.561Z,13.00
2023-03-16T16:27:17.289Z,12.80
2023-03-16T16:31:25.476Z,12.70
2023-03-16T16:35:32.514Z,12.60
2023-03-16T16:39:40.461Z,12.60
2023-03-16T16:43:47.727Z,12.60
2023-03-16T16:47:55.702Z,12.50
2023-03-16T16:52:02.493Z,12.50
2023-03-16T16:56:14.006Z,12.40
2023-03-16T17:00:26.789Z,12.20
2023-03-16T17:04:33.519Z,12.10
2023-03-16T17:08:40.235Z,12.10
2023-03-16T17:12:47.800Z,12.00
2023-03-16T17:16:55.124Z,11.90
2023-03-16T17:21:02.378Z,11.80
2023-03-16T17:25:09.269Z,11.70
2023-03-16T17:29:24.374Z,11.50
2023-03-16T17:33:31.817Z,11.30
2023-03-16T17:37:38.476Z,11.20
2023-03-16T17:41:45.974Z,11.00
2023-03-16T17:45:53.293Z,10.70
2023-03-16T17:50:00.015Z,11.70
2023-03-16T17:54:07.124Z,10.40
2023-03-16T17:58:21.551Z,10.30
2023-03-16T18:02:49.643Z,10.20
2023-03-16T18:06:56.602Z,10.00
2023-03-16T18:11:06.680Z,9.90
2023-03-16T18:15:18.319Z,9.80
2023-03-16T18:19:25.651Z,10.40
2023-03-16T18:23:34.703Z,9.70
2023-03-16T18:27:41.349Z,9.60
2023-03-16T18:31:48.077Z,9.50
2023-03-16T18:35:57.561Z,9.40
2023-03-16T18:40:04.974Z,9.40
2023-03-16T18:44:18.787Z,9.30
2023-03-16T18:48:35.047Z,9.20
2023-03-16T18:52:42.201Z,9.20
2023-03-16T18:56:49.555Z,9.10
2023-03-16T19:00:58.534Z,9.10
2023-03-16T19:05:11.184Z,9.20
2023-03-16T19:09:20.707Z,9.00
2023-03-16T19:13:28.383Z,9.00
2023-03-16T19:17:35.147Z,9.00
2023-03-16T19:21:42.861Z,9.00
2023-03-16T19:25:50.520Z,8.80
2023-03-16T19:29:57.264Z,8.90
2023-03-16T19:34:04.093Z,8.90
2023-03-16T19:38:10.794Z,8.80
2023-03-16T19:42:30.869Z,8.80
2023-03-16T19:46:37.653Z,8.80
2023-03-16T19:50:44.332Z,8.80
2023-03-16T19:54:51.675Z,8.70
2023-03-16T19:58:58.670Z,8.70
2023-03-16T20:03:05.453Z,8.70
2023-03-16T20:07:17.073Z,8.60
2023-03-16T20:11:31.835Z,9.70
2023-03-16T20:15:38.598Z,8.70
2023-03-16T20:19:45.264Z,8.70
2023-03-16T20:23:52.811Z,8.70
2023-03-16T20:28:02.065Z,8.70
2023-03-16T20:32:30.621Z,8.70
2023-03-16T20:36:37.325Z,8.70
2023-03-16T20:40:47.167Z,8.70
2023-03-16T20:44:53.836Z,8.80
2023-03-16T20:49:00.805Z,8.90
2023-03-16T20:53:08.563Z,8.90
2023-03-16T20:57:36.966Z,9.60
2023-03-16T21:01:45.797Z,8.90
2023-03-16T21:05:58.338Z,9.00
2023-03-16T21:10:06.527Z,9.10
2023-03-16T21:14:23.813Z,9.00
2023-03-16T21:18:30.929Z,9.10
2023-03-16T21:22:37.714Z,9.00
2023-03-16T21:26:45.023Z,9.00
2023-03-16T21:30:54.874Z,8.90
2023-03-16T21:35:01.633Z,8.90
2023-03-16T21:39:19.413Z,8.80
2023-03-16T21:43:26.770Z,8.80
2023-03-16T21:47:34.951Z,8.70
2023-03-16T21:51:43.131Z,8.50
2023-03-16T21:55:51.650Z,8.50
2023-03-16T21:59:58.356Z,8.50
2023-03-16T22:04:14.871Z,8.40
2023-03-16T22:08:24.808Z,8.30
2023-03-16T22:12:31.446Z,8.50
2023-03-16T22:16:38.270Z,8.20
2023-03-16T22:20:45.353Z,8.10
2023-03-16T22:24:52.135Z,8.00
2023-03-16T22:29:00.699Z,7.80
2023-03-16T22:33:10.334Z,7.80
2023-03-16T22:37:23.778Z,7.80
2023-03-16T22:41:31.066Z,7.70
2023-03-16T22:45:37.848Z,7.50
2023-03-16T22:49:44.575Z,7.50
2023-03-16T22:53:59.686Z,7.50
2023-03-16T22:58:24.042Z,7.50
2023-03-16T23:02:30.737Z,7.40
2023-03-16T23:06:37.873Z,7.40
2023-03-16T23:10:45.209Z,7.50
2023-03-16T23:14:52.894Z,7.50
2023-03-16T23:18:59.896Z,7.50
2023-03-16T23:23:06.575Z,7.50
2023-03-16T23:27:22.345Z,7.50
2023-03-16T23:31:29.738Z,7.60
2023-03-16T23:35:36.546Z,7.60
2023-03-16T23:39:43.532Z,7.70
2023-03-16T23:43:52.172Z,7.70
2023-03-16T23:48:02.360Z,7.70
2023-03-16T23:52:11.911Z,7.70
2023-03-16T23:56:18.762Z,7.80
